createdAt,value
2022-11-27T00:01:20.378Z,9.10
2022-11-27T00:03:47.846Z,9.10
2022-11-27T00:06:17.910Z,9.10
2022-11-27T00:08:45.748Z,9.00
2022-11-27T00:11:18.426Z,9.00
2022-11-27T00:13:45.730Z,9.00
2022-11-27T00:16:13.440Z,9.00
2022-11-27T00:18:41.442Z,9.00
2022-11-27T00:21:13.287Z,9.00
2022-11-27T00:23:40.760Z,9.00
2022-11-27T00:26:08.414Z,9.00
2022-11-27T00:28:35.981Z,9.00
2022-11-27T00:31:05.654Z,8.90
2022-11-27T00:33:32.835Z,8.90
2022-11-27T00:36:07.219Z,8.90
2022-11-27T00:38:38.669Z,8.90
2022-11-27T00:41:16.866Z,8.90
2022-11-27T00:43:45.055Z,8.90
2022-11-27T00:46:16.735Z,8.90
2022-11-27T00:48:44.188Z,8.90
2022-11-27T00:51:14.485Z,8.90
2022-11-27T00:53:41.495Z,8.90
2022-11-27T00:56:08.851Z,8.90
2022-11-27T00:58:35.626Z,8.90
2022-11-27T01:01:05.607Z,8.90
2022-11-27T01:03:32.712Z,8.80
2022-11-27T01:06:04.665Z,8.80
2022-11-27T01:08:31.651Z,8.80
2022-11-27T01:10:58.922Z,8.80
2022-11-27T01:13:31.779Z,8.80
2022-11-27T01:16:10.603Z,8.80
2022-11-27T01:18:39.142Z,8.80
2022-11-27T01:21:06.861Z,8.80
2022-11-27T01:23:33.846Z,8.80
2022-11-27T01:26:01.903Z,8.80
2022-11-27T01:28:28.640Z,8.70
2022-11-27T01:30:55.500Z,8.70
2022-11-27T01:33:22.582Z,8.70
2022-11-27T01:36:00.193Z,8.70
2022-11-27T01:38:27.481Z,8.70
2022-11-27T01:41:01.910Z,8.70
2022-11-27T01:44:24.078Z,8.70
2022-11-27T01:46:53.580Z,8.70
2022-11-27T01:49:25.603Z,8.70
2022-11-27T01:52:01.841Z,8.70
2022-11-27T01:54:35.127Z,8.70
2022-11-27T01:57:07.588Z,8.70
2022-11-27T01:59:34.338Z,8.70
2022-11-27T02:02:03.019Z,8.70
2022-11-27T02:04:30.434Z,8.70
2022-11-27T02:06:59.400Z,8.70
2022-11-27T02:09:27.639Z,8.70
2022-11-27T02:12:17.401Z,8.70
2022-11-27T02:14:49.847Z,8.70
2022-11-27T02:17:51.881Z,8.70
2022-11-27T02:20:36.263Z,8.70
2022-11-27T02:23:11.813Z,8.70
2022-11-27T02:25:46.687Z,8.70
2022-11-27T02:28:31.975Z,8.70
2022-11-27T02:31:06.742Z,8.70
2022-11-27T02:33:39.987Z,8.70
2022-11-27T02:36:15.070Z,8.70
2022-11-27T02:38:47.641Z,8.70
2022-11-27T02:41:23.329Z,8.70
2022-11-27T02:43:52.013Z,8.70
2022-11-27T02:46:20.388Z,8.70
2022-11-27T02:48:54.642Z,8.70
2022-11-27T02:51:28.966Z,8.70
2022-11-27T02:54:00.732Z,8.70
2022-11-27T02:56:29.206Z,8.70
2022-11-27T02:58:59.218Z,8.70
2022-11-27T03:01:31.133Z,8.70
2022-11-27T03:03:59.854Z,8.70
2022-11-27T03:06:41.696Z,8.70
2022-11-27T03:09:20.678Z,8.70
2022-11-27T03:11:48.410Z,8.70
2022-11-27T03:14:16.078Z,8.70
2022-11-27T03:16:45.806Z,8.70
2022-11-27T03:19:15.937Z,8.70
2022-11-27T03:21:51.274Z,8.70
2022-11-27T03:24:18.031Z,8.70
2022-11-27T03:26:45.083Z,8.70
2022-11-27T03:29:35.079Z,8.80
2022-11-27T03:32:02.411Z,8.80
2022-11-27T03:34:29.321Z,8.80
2022-11-27T03:36:55.985Z,8.80
2022-11-27T03:39:23.723Z,8.80
2022-11-27T03:42:02.733Z,8.80
2022-11-27T03:44:37.882Z,8.80
2022-11-27T03:47:29.899Z,8.80
2022-11-27T03:50:17.484Z,8.80
2022-11-27T03:53:16.337Z,8.80
2022-11-27T03:56:05.471Z,8.80
2022-11-27T03:58:40.355Z,8.80
2022-11-27T04:01:11.374Z,8.80
2022-11-27T04:03:38.732Z,8.80
2022-11-27T04:06:05.551Z,8.80
2022-11-27T04:08:32.287Z,8.80
2022-11-27T04:10:58.902Z,8.80
2022-11-27T04:13:25.714Z,8.90
2022-11-27T04:15:52.430Z,8.90
2022-11-27T04:18:19.200Z,8.90
2022-11-27T04:20:46.075Z,8.90
2022-11-27T04:23:12.671Z,8.90
2022-11-27T04:25:39.304Z,8.90
2022-11-27T04:28:05.958Z,8.90
2022-11-27T04:30:32.533Z,8.90
2022-11-27T04:32:59.186Z,8.90
2022-11-27T04:35:25.919Z,8.90
2022-11-27T04:37:52.535Z,8.90
2022-11-27T04:40:19.481Z,8.90
2022-11-27T04:42:46.258Z,9.00
2022-11-27T04:45:12.964Z,9.00
2022-11-27T04:47:39.917Z,9.00
2022-11-27T04:50:07.288Z,9.00
2022-11-27T04:52:33.949Z,9.00
2022-11-27T04:55:00.749Z,9.00
2022-11-27T04:57:27.830Z,9.00
2022-11-27T04:59:54.579Z,9.00
2022-11-27T05:02:21.744Z,9.00
2022-11-27T05:04:48.547Z,9.00
2022-11-27T05:07:15.195Z,9.00
2022-11-27T05:09:41.802Z,9.00
2022-11-27T05:12:08.537Z,9.10
2022-11-27T05:14:35.268Z,9.10
2022-11-27T05:17:02.009Z,9.00
2022-11-27T05:19:30.623Z,9.00
2022-11-27T05:21:58.212Z,9.10
2022-11-27T05:24:28.533Z,9.00
2022-11-27T05:26:56.436Z,9.10
2022-11-27T05:29:24.410Z,9.10
2022-11-27T05:31:51.106Z,9.10
2022-11-27T05:34:17.962Z,9.10
2022-11-27T05:36:44.804Z,9.10
2022-11-27T05:39:12.086Z,9.10
2022-11-27T05:41:40.903Z,9.10
2022-11-27T05:44:07.663Z,9.10
2022-11-27T05:46:34.350Z,9.10
2022-11-27T05:49:01.110Z,9.10
2022-11-27T05:51:27.942Z,9.10
2022-11-27T05:53:54.768Z,9.10
2022-11-27T05:56:21.590Z,9.10
2022-11-27T05:58:49.147Z,9.10
2022-11-27T06:01:17.779Z,9.10
2022-11-27T06:03:44.846Z,9.10
2022-11-27T06:06:17.867Z,9.10
2022-11-27T06:08:45.570Z,9.20
2022-11-27T06:11:19.056Z,9.10
2022-11-27T06:13:46.956Z,9.10
2022-11-27T06:16:16.454Z,9.10
2022-11-27T06:18:43.813Z,9.20
2022-11-27T06:21:13.193Z,9.10
2022-11-27T06:23:41.164Z,9.10
2022-11-27T06:26:17.286Z,9.10
2022-11-27T06:28:44.686Z,9.20
2022-11-27T06:31:17.790Z,9.20
2022-11-27T06:33:46.345Z,9.20
2022-11-27T06:36:13.032Z,9.20
2022-11-27T06:38:39.770Z,9.20
2022-11-27T06:41:08.802Z,9.10
2022-11-27T06:43:36.453Z,9.20
2022-11-27T06:46:04.510Z,9.20
2022-11-27T06:48:32.792Z,9.20
2022-11-27T06:51:03.847Z,9.20
2022-11-27T06:53:31.919Z,9.10
2022-11-27T06:55:58.547Z,9.20
2022-11-27T06:58:30.679Z,9.20
2022-11-27T07:01:02.525Z,9.10
2022-11-27T07:03:29.166Z,9.20
2022-11-27T07:05:59.317Z,9.20
2022-11-27T07:08:26.011Z,9.20
2022-11-27T07:10:52.591Z,9.20
2022-11-27T07:13:19.163Z,9.20
2022-11-27T07:15:46.375Z,9.20
2022-11-27T07:18:13.000Z,9.20
2022-11-27T07:20:39.715Z,9.20
2022-11-27T07:23:06.278Z,9.20
2022-11-27T07:25:32.910Z,9.20
2022-11-27T07:27:59.716Z,9.20
2022-11-27T07:30:26.306Z,9.20
2022-11-27T07:32:52.922Z,9.20
2022-11-27T07:35:19.678Z,9.20
2022-11-27T07:37:46.343Z,9.20
2022-11-27T07:40:14.993Z,9.20
2022-11-27T07:42:41.882Z,9.20
2022-11-27T07:45:09.298Z,9.20
2022-11-27T07:47:36.599Z,9.20
2022-11-27T07:50:04.069Z,9.20
2022-11-27T07:52:30.849Z,9.20
2022-11-27T07:54:57.509Z,9.20
2022-11-27T07:57:24.145Z,9.20
2022-11-27T07:59:50.995Z,9.20
2022-11-27T08:02:17.812Z,9.20
2022-11-27T08:04:44.792Z,9.20
2022-11-27T08:07:11.861Z,9.20
2022-11-27T08:09:39.957Z,9.20
2022-11-27T08:12:07.285Z,9.20
2022-11-27T08:14:34.179Z,9.20
2022-11-27T08:17:00.861Z,9.20
2022-11-27T08:19:27.660Z,9.20
2022-11-27T08:21:56.162Z,9.20
2022-11-27T08:24:22.795Z,9.20
2022-11-27T08:26:49.416Z,9.20
2022-11-27T08:29:16.031Z,9.20
2022-11-27T08:31:42.651Z,9.20
2022-11-27T08:34:09.304Z,9.20
2022-11-27T08:36:35.882Z,9.30
2022-11-27T08:39:02.500Z,9.30
2022-11-27T08:41:29.111Z,9.30
2022-11-27T08:43:55.730Z,9.30
2022-11-27T08:46:22.511Z,9.30
2022-11-27T08:48:49.147Z,9.30
2022-11-27T08:51:16.181Z,9.30
2022-11-27T08:53:45.555Z,9.30
2022-11-27T08:56:18.741Z,9.30
2022-11-27T08:58:46.183Z,9.30
2022-11-27T09:01:23.507Z,9.30
2022-11-27T09:03:50.247Z,9.40
2022-11-27T09:06:21.249Z,9.40
2022-11-27T09:08:49.005Z,9.40
2022-11-27T09:11:18.159Z,9.40
2022-11-27T09:13:44.907Z,9.40
2022-11-27T09:16:14.939Z,9.40
2022-11-27T09:18:44.702Z,9.40
2022-11-27T09:21:13.105Z,9.40
2022-11-27T09:23:39.933Z,9.40
2022-11-27T09:26:10.729Z,9.40
2022-11-27T09:28:38.539Z,9.40
2022-11-27T09:31:06.734Z,9.50
2022-11-27T09:33:36.428Z,9.50
2022-11-27T09:36:11.600Z,9.50
2022-11-27T09:38:38.635Z,9.50
2022-11-27T09:41:14.375Z,9.50
2022-11-27T09:44:10.300Z,9.50
2022-11-27T09:46:40.094Z,9.50
2022-11-27T09:49:14.611Z,9.50
2022-11-27T09:51:55.022Z,9.60
2022-11-27T09:54:26.793Z,9.60
2022-11-27T09:56:55.644Z,9.60
2022-11-27T09:59:28.914Z,9.60
2022-11-27T10:01:56.354Z,9.60
2022-11-27T10:04:23.561Z,9.60
2022-11-27T10:07:30.185Z,9.60
2022-11-27T10:09:59.814Z,9.70
2022-11-27T10:12:48.337Z,9.70
2022-11-27T10:15:33.721Z,9.70
2022-11-27T10:18:26.863Z,9.70
2022-11-27T10:21:13.993Z,9.70
2022-11-27T10:23:56.527Z,9.70
2022-11-27T10:26:31.622Z,9.70
2022-11-27T10:29:29.868Z,9.80
2022-11-27T10:32:01.556Z,9.80
2022-11-27T10:35:04.513Z,9.80
2022-11-27T10:37:39.636Z,9.80
2022-11-27T10:40:12.719Z,9.80
2022-11-27T10:42:50.723Z,9.90
2022-11-27T10:45:32.998Z,9.90
2022-11-27T10:47:59.663Z,9.90
2022-11-27T10:50:26.482Z,9.90
2022-11-27T10:52:57.902Z,9.90
2022-11-27T10:55:55.142Z,9.90
2022-11-27T10:59:11.233Z,10.00
2022-11-27T11:01:53.405Z,10.00
2022-11-27T11:04:43.280Z,10.00
2022-11-27T11:07:28.537Z,10.00
2022-11-27T11:09:56.326Z,10.00
2022-11-27T11:12:23.976Z,10.00
2022-11-27T11:14:56.466Z,10.10
2022-11-27T11:17:28.836Z,10.10
2022-11-27T11:19:55.614Z,10.10
2022-11-27T11:22:22.623Z,10.10
2022-11-27T11:24:51.523Z,10.10
2022-11-27T11:27:30.443Z,10.10
2022-11-27T11:30:01.033Z,10.20
2022-11-27T11:32:30.734Z,10.20
2022-11-27T11:35:01.760Z,10.20
2022-11-27T11:37:31.847Z,10.20
2022-11-27T11:40:04.574Z,10.20
2022-11-27T11:42:34.058Z,10.20
2022-11-27T11:45:16.408Z,10.30
2022-11-27T11:47:52.338Z,10.30
2022-11-27T11:50:45.323Z,10.30
2022-11-27T11:53:23.979Z,10.30
2022-11-27T11:56:20.781Z,10.30
2022-11-27T11:59:02.836Z,10.30
2022-11-27T12:01:54.364Z,10.40
2022-11-27T12:05:03.409Z,10.40
2022-11-27T12:07:36.101Z,10.40
2022-11-27T12:10:24.418Z,10.40
2022-11-27T12:13:20.963Z,10.40
2022-11-27T12:16:04.594Z,10.40
2022-11-27T12:19:01.386Z,10.50
2022-11-27T12:21:46.470Z,10.50
2022-11-27T12:24:25.360Z,10.50
2022-11-27T12:27:29.397Z,10.50
2022-11-27T12:30:02.036Z,10.50
2022-11-27T12:32:34.275Z,10.60
2022-11-27T12:35:21.366Z,10.60
2022-11-27T12:38:18.280Z,10.60
2022-11-27T12:41:08.800Z,10.60
2022-11-27T12:43:41.144Z,10.60
2022-11-27T12:46:37.614Z,10.60
2022-11-27T12:49:25.784Z,10.60
2022-11-27T12:52:02.801Z,10.60
2022-11-27T12:54:48.030Z,10.60
2022-11-27T12:57:27.389Z,10.70
2022-11-27T13:00:00.861Z,10.70
2022-11-27T13:02:40.769Z,10.70
2022-11-27T13:05:17.781Z,10.70
2022-11-27T13:07:51.799Z,10.70
2022-11-27T13:10:32.135Z,10.70
2022-11-27T13:13:09.626Z,10.70
2022-11-27T13:15:46.648Z,10.70
2022-11-27T13:18:22.166Z,10.70
2022-11-27T13:20:52.720Z,10.70
2022-11-27T13:23:21.108Z,10.70
2022-11-27T13:25:54.591Z,10.70
2022-11-27T13:28:45.947Z,10.70
2022-11-27T13:31:22.149Z,10.70
2022-11-27T13:33:50.466Z,10.70
2022-11-27T13:36:27.939Z,10.70
2022-11-27T13:39:01.869Z,10.70
2022-11-27T13:41:40.519Z,10.70
2022-11-27T13:44:27.777Z,10.70
2022-11-27T13:46:59.164Z,10.70
2022-11-27T13:49:32.411Z,10.70
2022-11-27T13:52:05.048Z,10.70
2022-11-27T13:54:31.995Z,10.70
2022-11-27T13:57:13.762Z,10.70
2022-11-27T13:59:40.637Z,10.70
2022-11-27T14:02:08.706Z,10.70
2022-11-27T14:04:36.106Z,10.70
2022-11-27T14:07:09.653Z,10.70
2022-11-27T14:09:51.132Z,10.70
2022-11-27T14:12:34.106Z,10.70
2022-11-27T14:15:02.925Z,10.70
2022-11-27T14:17:40.240Z,10.70
2022-11-27T14:20:23.544Z,10.70
2022-11-27T14:23:13.076Z,10.70
2022-11-27T14:25:40.761Z,10.70
2022-11-27T14:28:21.241Z,10.70
2022-11-27T14:30:53.819Z,10.70
2022-11-27T14:33:33.231Z,10.70
2022-11-27T14:36:22.230Z,10.70
2022-11-27T14:38:49.388Z,10.70
2022-11-27T14:41:21.544Z,10.70
2022-11-27T14:43:48.994Z,10.70
2022-11-27T14:46:19.228Z,10.60
2022-11-27T14:48:57.264Z,10.60
2022-11-27T14:51:35.586Z,10.60
2022-11-27T14:54:05.488Z,10.60
2022-11-27T14:56:35.192Z,10.70
2022-11-27T14:59:02.653Z,10.60
2022-11-27T15:01:32.018Z,10.70
2022-11-27T15:04:05.628Z,10.60
2022-11-27T15:06:45.202Z,10.60
2022-11-27T15:09:31.687Z,10.60
2022-11-27T15:12:32.078Z,10.60
2022-11-27T15:15:06.556Z,10.60
2022-11-27T15:17:36.762Z,10.60
2022-11-27T15:20:12.352Z,10.60
2022-11-27T15:22:39.127Z,10.60
2022-11-27T15:25:27.498Z,10.60
2022-11-27T15:27:54.099Z,10.60
2022-11-27T15:30:23.756Z,10.60
2022-11-27T15:32:52.802Z,10.60
2022-11-27T15:35:29.811Z,10.60
2022-11-27T15:37:58.055Z,10.60
2022-11-27T15:40:37.307Z,10.60
2022-11-27T15:43:14.755Z,10.60
2022-11-27T15:45:48.760Z,10.60
2022-11-27T15:48:18.189Z,10.50
2022-11-27T15:50:50.004Z,10.60
2022-11-27T15:53:18.431Z,10.60
2022-11-27T15:55:45.052Z,10.50
2022-11-27T15:58:11.721Z,10.50
2022-11-27T16:00:39.687Z,10.50
2022-11-27T16:03:06.431Z,10.50
2022-11-27T16:05:33.161Z,10.50
2022-11-27T16:07:59.856Z,10.50
2022-11-27T16:10:26.591Z,10.50
2022-11-27T16:12:55.157Z,10.50
2022-11-27T16:15:23.466Z,10.50
2022-11-27T16:17:50.296Z,10.40
2022-11-27T16:20:17.177Z,10.40
2022-11-27T16:22:43.806Z,10.50
2022-11-27T16:25:10.791Z,10.50
2022-11-27T16:27:37.530Z,10.40
2022-11-27T16:30:04.849Z,10.40
2022-11-27T16:32:31.555Z,10.50
2022-11-27T16:34:58.128Z,10.40
2022-11-27T16:37:24.720Z,10.40
2022-11-27T16:39:51.352Z,10.40
2022-11-27T16:42:18.074Z,10.40
2022-11-27T16:44:45.072Z,10.40
2022-11-27T16:47:12.230Z,10.40
2022-11-27T16:49:39.493Z,10.40
2022-11-27T16:52:06.247Z,10.40
2022-11-27T16:54:32.943Z,10.40
2022-11-27T16:56:59.976Z,10.40
2022-11-27T16:59:26.774Z,10.40
2022-11-27T17:01:53.454Z,10.40
2022-11-27T17:04:21.188Z,10.40
2022-11-27T17:06:49.379Z,10.40
2022-11-27T17:09:16.876Z,10.40
2022-11-27T17:11:48.272Z,10.40
2022-11-27T17:14:16.118Z,10.40
2022-11-27T17:16:43.057Z,10.30
2022-11-27T17:19:14.142Z,10.30
2022-11-27T17:21:41.494Z,10.30
2022-11-27T17:24:15.233Z,10.30
2022-11-27T17:26:43.475Z,10.30
2022-11-27T17:29:14.901Z,10.30
2022-11-27T17:31:41.738Z,10.30
2022-11-27T17:34:11.939Z,10.30
2022-11-27T17:36:39.919Z,10.30
2022-11-27T17:39:06.659Z,10.30
2022-11-27T17:41:34.047Z,10.30
2022-11-27T17:44:02.476Z,10.30
2022-11-27T17:46:29.791Z,10.30
2022-11-27T17:48:59.264Z,10.20
2022-11-27T17:51:27.399Z,10.20
2022-11-27T17:53:54.191Z,10.20
2022-11-27T17:56:21.266Z,10.20
2022-11-27T17:58:48.439Z,10.20
2022-11-27T18:01:18.490Z,10.20
2022-11-27T18:03:48.583Z,10.20
2022-11-27T18:06:17.123Z,10.20
2022-11-27T18:08:45.064Z,10.20
2022-11-27T18:11:20.892Z,10.20
2022-11-27T18:13:48.655Z,10.20
2022-11-27T18:16:18.492Z,10.20
2022-11-27T18:18:45.364Z,10.20
2022-11-27T18:21:18.335Z,10.20
2022-11-27T18:24:20.584Z,10.20
2022-11-27T18:29:22.523Z,10.20
2022-11-27T18:31:50.945Z,10.10
2022-11-27T18:34:18.357Z,10.10
2022-11-27T18:36:46.089Z,10.10
2022-11-27T18:39:13.442Z,10.10
2022-11-27T18:41:40.961Z,10.10
2022-11-27T18:44:07.684Z,10.10
2022-11-27T18:46:34.349Z,10.10
2022-11-27T18:49:01.181Z,10.10
2022-11-27T18:51:27.921Z,10.10
2022-11-27T18:53:55.894Z,10.10
2022-11-27T18:56:25.152Z,10.10
2022-11-27T18:58:53.771Z,10.10
2022-11-27T19:01:26.469Z,10.10
2022-11-27T19:03:53.354Z,10.10
2022-11-27T19:06:22.200Z,10.00
2022-11-27T19:08:49.364Z,10.10
2022-11-27T19:11:20.635Z,10.10
2022-11-27T19:13:48.232Z,10.00
2022-11-27T19:16:19.925Z,10.10
2022-11-27T19:18:46.956Z,10.00
2022-11-27T19:21:26.196Z,10.10
2022-11-27T19:23:53.619Z,10.00
2022-11-27T19:26:25.991Z,10.00
2022-11-27T19:28:55.374Z,10.00
2022-11-27T19:31:23.681Z,10.00
2022-11-27T19:33:55.354Z,10.00
2022-11-27T19:36:22.840Z,10.00
2022-11-27T19:38:54.628Z,10.00
2022-11-27T19:41:21.378Z,10.00
2022-11-27T19:43:47.990Z,10.00
2022-11-27T19:46:23.739Z,10.00
2022-11-27T19:48:51.091Z,10.00
2022-11-27T19:51:17.707Z,10.00
2022-11-27T19:53:44.676Z,10.00
2022-11-27T19:56:11.514Z,9.90
2022-11-27T19:58:38.347Z,10.00
2022-11-27T20:01:13.813Z,9.90
2022-11-27T20:03:40.642Z,10.00
2022-11-27T20:06:16.233Z,9.90
2022-11-27T20:08:43.847Z,9.90
2022-11-27T20:11:13.326Z,9.90
2022-11-27T20:13:40.515Z,9.90
2022-11-27T20:16:09.298Z,9.90
2022-11-27T20:18:36.735Z,10.00
2022-11-27T20:21:08.602Z,9.90
2022-11-27T20:23:35.712Z,9.90
2022-11-27T20:26:06.357Z,9.90
2022-11-27T20:28:34.217Z,9.90
2022-11-27T20:31:03.362Z,9.90
2022-11-27T20:33:31.155Z,9.90
2022-11-27T20:35:58.185Z,9.90
2022-11-27T20:38:26.478Z,9.90
2022-11-27T20:40:53.535Z,9.90
2022-11-27T20:43:20.371Z,9.90
2022-11-27T20:45:47.172Z,9.90
2022-11-27T20:48:21.090Z,9.90
2022-11-27T20:50:51.364Z,9.90
2022-11-27T20:53:18.878Z,9.90
2022-11-27T20:55:45.591Z,9.90
2022-11-27T20:58:12.402Z,9.90
2022-11-27T21:00:40.355Z,9.90
2022-11-27T21:03:07.467Z,9.90
2022-11-27T21:05:34.199Z,9.90
2022-11-27T21:08:01.009Z,9.90
2022-11-27T21:10:28.353Z,9.80
2022-11-27T21:12:55.083Z,9.90
2022-11-27T21:15:21.895Z,9.80
2022-11-27T21:17:48.563Z,9.90
2022-11-27T21:20:15.259Z,9.90
2022-11-27T21:22:43.891Z,9.90
2022-11-27T21:25:10.587Z,9.90
2022-11-27T21:27:37.431Z,9.80
2022-11-27T21:30:05.913Z,9.80
2022-11-27T21:32:32.546Z,9.80
2022-11-27T21:34:59.182Z,9.80
2022-11-27T21:37:26.227Z,9.80
2022-11-27T21:39:53.026Z,9.80
2022-11-27T21:42:20.397Z,9.90
2022-11-27T21:44:47.123Z,9.80
2022-11-27T21:47:13.875Z,9.80
2022-11-27T21:49:40.932Z,9.80
2022-11-27T21:52:07.663Z,9.90
2022-11-27T21:54:35.903Z,9.80
2022-11-27T21:57:03.580Z,9.80
2022-11-27T21:59:30.289Z,9.80
2022-11-27T22:01:57.296Z,9.80
2022-11-27T22:04:24.941Z,9.80
2022-11-27T22:06:51.710Z,9.90
2022-11-27T22:09:19.124Z,9.80
2022-11-27T22:11:46.734Z,9.80
2022-11-27T22:14:15.267Z,9.80
2022-11-27T22:16:45.642Z,9.80
2022-11-27T22:19:14.237Z,9.90
2022-11-27T22:21:41.315Z,9.90
2022-11-27T22:24:12.221Z,9.90
2022-11-27T22:26:43.417Z,9.80
2022-11-27T22:29:10.038Z,9.90
2022-11-27T22:31:36.639Z,9.80
2022-11-27T22:34:03.419Z,9.80
2022-11-27T22:36:34.465Z,9.80
2022-11-27T22:39:04.607Z,9.80
2022-11-27T22:41:35.314Z,9.80
2022-11-27T22:44:11.349Z,9.80
2022-11-27T22:46:40.775Z,9.80
2022-11-27T22:49:08.306Z,9.90
2022-11-27T22:51:36.095Z,9.90
2022-11-27T22:54:04.552Z,9.80
2022-11-27T22:56:33.705Z,9.80
2022-11-27T22:59:24.742Z,9.80
2022-11-27T23:01:48.662Z,9.90
2022-11-27T23:04:15.683Z,9.90
2022-11-27T23:06:47.323Z,9.90
2022-11-27T23:09:15.163Z,9.90
2022-11-27T23:11:41.830Z,9.90
2022-11-27T23:14:08.786Z,9.80
2022-11-27T23:16:35.691Z,9.80
2022-11-27T23:19:02.459Z,9.90
2022-11-27T23:21:30.414Z,9.90
2022-11-27T23:23:57.188Z,9.90
2022-11-27T23:26:24.269Z,9.90
2022-11-27T23:28:53.492Z,9.90
2022-11-27T23:31:31.893Z,9.90
2022-11-27T23:34:03.617Z,9.90
2022-11-27T23:36:32.698Z,9.90
2022-11-27T23:39:01.021Z,9.90
2022-11-27T23:41:28.089Z,9.90
2022-11-27T23:43:55.211Z,9.90
2022-11-27T23:46:26.359Z,9.90
2022-11-27T23:48:58.230Z,9.90
2022-11-27T23:51:28.354Z,9.90
2022-11-27T23:53:55.362Z,9.90
2022-11-27T23:56:25.673Z,9.90
2022-11-27T23:58:53.594Z,9.90
